Terminal Aerodrome Forecast
Issued by NWS

Home | Current Version | Previous Version | Text Only | Print | Product List | Glossary On
Versions: 1 2 3 4 5 6 7 8 9 10 11 12 13 14 15 16 17 18 19 20 21 22 23 24 25 26
864
FTUS44 KOUN 250520
TAFGAG
TAF
KGAG 250520Z 2506/2606 16012KT P6SM SCT040 BKN120
     FM251000 35012KT 5SM -RA OVC020
      TEMPO 2511/2515 2SM -TSRA BR OVC012CB
     FM251800 02016G22KT P6SM OVC050
     FM260300 02006KT P6SM SKC=

USA.gov is the U.S. government's official web portal to all federal, state and local government web resources and services.